sensor_id;sensor_type;location;lat;lon;timestamp;P1;durP1;ratioP1;P2;durP2;ratioP2
9729;SDS011;4904;49.152;11.004;2024-02-21T00:02:09;10.73;;;3.70;;
9729;SDS011;4904;49.152;11.004;2024-02-21T00:04:36;9.20;;;3.60;;
9729;SDS011;4904;49.152;11.004;2024-02-21T00:07:03;9.23;;;3.80;;
9729;SDS011;4904;49.152;11.004;2024-02-21T00:09:32;7.47;;;3.45;;
9729;SDS011;4904;49.152;11.004;2024-02-21T00:11:59;7.05;;;3.45;;
9729;SDS011;4904;49.152;11.004;2024-02-21T00:14:26;6.70;;;3.40;;
9729;SDS011;4904;49.152;11.004;2024-02-21T00:16:53;9.27;;;3.45;;
9729;SDS011;4904;49.152;11.004;2024-02-21T00:19:20;7.00;;;3.47;;
9729;SDS011;4904;49.152;11.004;2024-02-21T00:21:47;7.60;;;3.50;;
9729;SDS011;4904;49.152;11.004;2024-02-21T00:24:13;9.23;;;3.50;;
9729;SDS011;4904;49.152;11.004;2024-02-21T00:26:42;9.40;;;3.95;;
9729;SDS011;4904;49.152;11.004;2024-02-21T00:29:09;8.43;;;3.58;;
9729;SDS011;4904;49.152;11.004;2024-02-21T00:31:36;6.47;;;3.40;;
9729;SDS011;4904;49.152;11.004;2024-02-21T00:34:03;8.25;;;3.35;;
9729;SDS011;4904;49.152;11.004;2024-02-21T00:36:30;6.97;;;3.63;;
9729;SDS011;4904;49.152;11.004;2024-02-21T00:38:56;7.55;;;3.42;;
9729;SDS011;4904;49.152;11.004;2024-02-21T00:41:23;9.30;;;3.47;;
9729;SDS011;4904;49.152;11.004;2024-02-21T00:43:51;8.63;;;3.53;;
9729;SDS011;4904;49.152;11.004;2024-02-21T00:46:18;10.50;;;4.00;;
9729;SDS011;4904;49.152;11.004;2024-02-21T00:48:45;8.77;;;3.42;;
9729;SDS011;4904;49.152;11.004;2024-02-21T00:51:12;8.82;;;3.85;;
9729;SDS011;4904;49.152;11.004;2024-02-21T00:53:39;11.93;;;3.75;;
9729;SDS011;4904;49.152;11.004;2024-02-21T00:56:05;5.07;;;3.40;;
9729;SDS011;4904;49.152;11.004;2024-02-21T00:58:33;9.48;;;3.90;;
9729;SDS011;4904;49.152;11.004;2024-02-21T01:01:01;10.48;;;3.60;;
9729;SDS011;4904;49.152;11.004;2024-02-21T01:03:28;11.57;;;3.67;;
9729;SDS011;4904;49.152;11.004;2024-02-21T01:05:55;8.18;;;3.83;;
9729;SDS011;4904;49.152;11.004;2024-02-21T01:08:22;7.25;;;3.08;;
9729;SDS011;4904;49.152;11.004;2024-02-21T01:10:48;9.75;;;3.60;;
9729;SDS011;4904;49.152;11.004;2024-02-21T01:13:15;9.85;;;3.80;;
9729;SDS011;4904;49.152;11.004;2024-02-21T01:15:42;9.23;;;3.65;;
9729;SDS011;4904;49.152;11.004;2024-02-21T01:18:10;8.13;;;3.65;;
9729;SDS011;4904;49.152;11.004;2024-02-21T01:20:37;8.68;;;3.70;;
9729;SDS011;4904;49.152;11.004;2024-02-21T01:23:04;7.35;;;3.58;;
9729;SDS011;4904;49.152;11.004;2024-02-21T01:25:30;10.23;;;4.05;;
9729;SDS011;4904;49.152;11.004;2024-02-21T01:27:57;11.23;;;3.97;;
9729;SDS011;4904;49.152;11.004;2024-02-21T01:30:24;8.70;;;3.78;;
9729;SDS011;4904;49.152;11.004;2024-02-21T01:32:51;12.10;;;4.05;;
9729;SDS011;4904;49.152;11.004;2024-02-21T01:35:19;8.15;;;3.58;;
9729;SDS011;4904;49.152;11.004;2024-02-21T01:37:46;10.57;;;3.58;;
9729;SDS011;4904;49.152;11.004;2024-02-21T01:40:14;8.73;;;3.70;;
9729;SDS011;4904;49.152;11.004;2024-02-21T01:42:41;8.70;;;3.70;;
9729;SDS011;4904;49.152;11.004;2024-02-21T01:45:08;11.90;;;4.05;;
9729;SDS011;4904;49.152;11.004;2024-02-21T01:47:35;10.23;;;3.97;;
9729;SDS011;4904;49.152;11.004;2024-02-21T01:50:03;14.20;;;4.20;;
9729;SDS011;4904;49.152;11.004;2024-02-21T01:52:32;11.07;;;4.43;;
9729;SDS011;4904;49.152;11.004;2024-02-21T01:55:01;9.90;;;3.60;;
9729;SDS011;4904;49.152;11.004;2024-02-21T01:57:28;9.93;;;3.50;;
9729;SDS011;4904;49.152;11.004;2024-02-21T01:59:55;8.48;;;3.58;;
9729;SDS011;4904;49.152;11.004;2024-02-21T02:02:22;8.48;;;3.33;;
9729;SDS011;4904;49.152;11.004;2024-02-21T02:04:50;10.00;;;3.70;;
9729;SDS011;4904;49.152;11.004;2024-02-21T02:07:17;10.40;;;3.80;;
9729;SDS011;4904;49.152;11.004;2024-02-21T02:09:46;7.60;;;3.42;;
9729;SDS011;4904;49.152;11.004;2024-02-21T02:12:13;10.80;;;3.78;;
9729;SDS011;4904;49.152;11.004;2024-02-21T02:14:39;9.38;;;3.28;;
9729;SDS011;4904;49.152;11.004;2024-02-21T02:17:06;10.57;;;3.90;;
9729;SDS011;4904;49.152;11.004;2024-02-21T02:19:34;8.38;;;3.65;;
9729;SDS011;4904;49.152;11.004;2024-02-21T02:22:03;9.75;;;3.60;;
9729;SDS011;4904;49.152;11.004;2024-02-21T02:24:39;7.60;;;3.42;;
9729;SDS011;4904;49.152;11.004;2024-02-21T02:27:05;8.10;;;3.33;;
9729;SDS011;4904;49.152;11.004;2024-02-21T02:29:32;12.35;;;3.60;;
9729;SDS011;4904;49.152;11.004;2024-02-21T02:31:59;9.68;;;3.50;;
9729;SDS011;4904;49.152;11.004;2024-02-21T02:34:26;9.73;;;3.75;;
9729;SDS011;4904;49.152;11.004;2024-02-21T02:36:53;6.93;;;3.40;;
9729;SDS011;4904;49.152;11.004;2024-02-21T02:39:20;9.73;;;3.15;;
9729;SDS011;4904;49.152;11.004;2024-02-21T02:41:48;7.30;;;3.30;;
9729;SDS011;4904;49.152;11.004;2024-02-21T02:44:15;10.38;;;3.22;;
9729;SDS011;4904;49.152;11.004;2024-02-21T02:46:42;8.48;;;3.60;;
9729;SDS011;4904;49.152;11.004;2024-02-21T02:49:09;5.78;;;2.97;;
9729;SDS011;4904;49.152;11.004;2024-02-21T02:51:36;8.45;;;3.55;;
9729;SDS011;4904;49.152;11.004;2024-02-21T02:54:03;7.50;;;3.10;;
9729;SDS011;4904;49.152;11.004;2024-02-21T02:56:30;9.20;;;3.15;;
9729;SDS011;4904;49.152;11.004;2024-02-21T02:58:58;11.43;;;3.70;;
9729;SDS011;4904;49.152;11.004;2024-02-21T03:01:24;9.27;;;3.30;;
9729;SDS011;4904;49.152;11.004;2024-02-21T03:03:52;7.57;;;3.35;;
9729;SDS011;4904;49.152;11.004;2024-02-21T03:06:19;7.45;;;3.00;;
9729;SDS011;4904;49.152;11.004;2024-02-21T03:08:46;7.45;;;2.80;;
9729;SDS011;4904;49.152;11.004;2024-02-21T03:11:13;7.07;;;2.90;;
9729;SDS011;4904;49.152;11.004;2024-02-21T03:13:40;11.27;;;3.05;;
9729;SDS011;4904;49.152;11.004;2024-02-21T03:16:08;7.22;;;3.17;;
9729;SDS011;4904;49.152;11.004;2024-02-21T03:18:35;7.53;;;3.30;;
9729;SDS011;4904;49.152;11.004;2024-02-21T03:21:02;8.35;;;3.25;;
9729;SDS011;4904;49.152;11.004;2024-02-21T03:23:30;8.15;;;2.92;;
9729;SDS011;4904;49.152;11.004;2024-02-21T03:25:57;8.75;;;3.22;;
9729;SDS011;4904;49.152;11.004;2024-02-21T03:28:23;5.70;;;2.70;;
9729;SDS011;4904;49.152;11.004;2024-02-21T03:30:51;6.57;;;3.00;;
9729;SDS011;4904;49.152;11.004;2024-02-21T03:33:19;9.25;;;3.30;;
9729;SDS011;4904;49.152;11.004;2024-02-21T03:35:48;9.88;;;2.92;;
9729;SDS011;4904;49.152;11.004;2024-02-21T03:38:15;7.85;;;2.75;;
9729;SDS011;4904;49.152;11.004;2024-02-21T03:40:42;7.70;;;3.30;;
9729;SDS011;4904;49.152;11.004;2024-02-21T03:43:08;7.65;;;3.17;;
9729;SDS011;4904;49.152;11.004;2024-02-21T03:45:36;6.32;;;2.30;;
9729;SDS011;4904;49.152;11.004;2024-02-21T03:48:03;6.60;;;2.90;;
9729;SDS011;4904;49.152;11.004;2024-02-21T03:50:32;8.98;;;2.67;;
9729;SDS011;4904;49.152;11.004;2024-02-21T03:52:59;8.77;;;3.05;;
9729;SDS011;4904;49.152;11.004;2024-02-21T03:55:26;8.85;;;2.83;;
9729;SDS011;4904;49.152;11.004;2024-02-21T03:57:53;7.25;;;2.90;;
9729;SDS011;4904;49.152;11.004;2024-02-21T04:00:19;8.02;;;2.70;;
9729;SDS011;4904;49.152;11.004;2024-02-21T04:02:46;9.38;;;2.78;;
9729;SDS011;4904;49.152;11.004;2024-02-21T04:05:15;9.68;;;3.20;;
9729;SDS011;4904;49.152;11.004;2024-02-21T04:07:43;9.48;;;3.45;;
9729;SDS011;4904;49.152;11.004;2024-02-21T04:10:11;7.78;;;3.20;;
9729;SDS011;4904;49.152;11.004;2024-02-21T04:12:38;8.70;;;3.03;;
9729;SDS011;4904;49.152;11.004;2024-02-21T04:15:05;8.27;;;3.40;;
9729;SDS011;4904;49.152;11.004;2024-02-21T04:17:32;6.70;;;3.20;;
9729;SDS011;4904;49.152;11.004;2024-02-21T04:20:04;6.82;;;3.90;;
9729;SDS011;4904;49.152;11.004;2024-02-21T04:22:32;5.70;;;3.20;;
9729;SDS011;4904;49.152;11.004;2024-02-21T04:25:01;7.63;;;3.40;;
9729;SDS011;4904;49.152;11.004;2024-02-21T04:27:27;7.50;;;3.25;;
9729;SDS011;4904;49.152;11.004;2024-02-21T04:29:54;8.48;;;3.28;;
9729;SDS011;4904;49.152;11.004;2024-02-21T04:32:21;7.25;;;2.85;;
9729;SDS011;4904;49.152;11.004;2024-02-21T04:34:48;8.00;;;3.50;;
9729;SDS011;4904;49.152;11.004;2024-02-21T04:37:15;8.18;;;3.75;;
9729;SDS011;4904;49.152;11.004;2024-02-21T04:39:42;6.95;;;3.28;;
9729;SDS011;4904;49.152;11.004;2024-02-21T04:42:10;5.88;;;2.83;;
9729;SDS011;4904;49.152;11.004;2024-02-21T04:44:37;7.82;;;3.30;;
9729;SDS011;4904;49.152;11.004;2024-02-21T04:47:04;6.97;;;3.40;;
9729;SDS011;4904;49.152;11.004;2024-02-21T04:49:31;11.43;;;3.58;;
9729;SDS011;4904;49.152;11.004;2024-02-21T04:51:58;8.20;;;3.42;;
9729;SDS011;4904;49.152;11.004;2024-02-21T04:54:25;10.73;;;3.67;;
9729;SDS011;4904;49.152;11.004;2024-02-21T04:56:52;8.48;;;3.08;;
9729;SDS011;4904;49.152;11.004;2024-02-21T04:59:20;7.47;;;3.13;;
9729;SDS011;4904;49.152;11.004;2024-02-21T05:01:47;9.07;;;3.53;;
9729;SDS011;4904;49.152;11.004;2024-02-21T05:04:15;7.55;;;3.45;;
9729;SDS011;4904;49.152;11.004;2024-02-21T05:06:42;8.27;;;3.38;;
9729;SDS011;4904;49.152;11.004;2024-02-21T05:09:09;7.65;;;3.35;;
9729;SDS011;4904;49.152;11.004;2024-02-21T05:11:36;8.18;;;3.33;;
9729;SDS011;4904;49.152;11.004;2024-02-21T05:14:03;7.90;;;3.38;;
9729;SDS011;4904;49.152;11.004;2024-02-21T05:16:32;8.90;;;3.65;;
9729;SDS011;4904;49.152;11.004;2024-02-21T05:18:59;8.85;;;3.53;;
9729;SDS011;4904;49.152;11.004;2024-02-21T05:21:26;8.82;;;3.60;;
9729;SDS011;4904;49.152;11.004;2024-02-21T05:23:53;6.45;;;3.50;;
9729;SDS011;4904;49.152;11.004;2024-02-21T05:26:20;8.27;;;3.58;;
9729;SDS011;4904;49.152;11.004;2024-02-21T05:28:47;9.95;;;3.70;;
9729;SDS011;4904;49.152;11.004;2024-02-21T05:31:15;9.68;;;3.17;;
9729;SDS011;4904;49.152;11.004;2024-02-21T05:33:43;7.80;;;3.40;;
9729;SDS011;4904;49.152;11.004;2024-02-21T05:36:10;6.95;;;3.55;;
9729;SDS011;4904;49.152;11.004;2024-02-21T05:38:37;8.18;;;3.38;;
9729;SDS011;4904;49.152;11.004;2024-02-21T05:41:04;9.73;;;3.92;;
9729;SDS011;4904;49.152;11.004;2024-02-21T05:43:31;10.35;;;3.70;;
9729;SDS011;4904;49.152;11.004;2024-02-21T05:45:58;9.35;;;4.18;;
9729;SDS011;4904;49.152;11.004;2024-02-21T05:48:25;8.55;;;3.83;;
9729;SDS011;4904;49.152;11.004;2024-02-21T05:50:53;11.27;;;4.50;;
9729;SDS011;4904;49.152;11.004;2024-02-21T05:53:22;9.40;;;3.63;;
9729;SDS011;4904;49.152;11.004;2024-02-21T05:55:49;8.63;;;4.53;;
9729;SDS011;4904;49.152;11.004;2024-02-21T05:58:16;10.57;;;4.32;;
9729;SDS011;4904;49.152;11.004;2024-02-21T06:00:43;8.57;;;4.28;;
9729;SDS011;4904;49.152;11.004;2024-02-21T06:03:10;10.57;;;4.32;;
9729;SDS011;4904;49.152;11.004;2024-02-21T06:05:37;10.32;;;4.05;;
9729;SDS011;4904;49.152;11.004;2024-02-21T06:08:06;9.93;;;4.75;;
9729;SDS011;4904;49.152;11.004;2024-02-21T06:10:33;10.73;;;4.50;;
9729;SDS011;4904;49.152;11.004;2024-02-21T06:13:00;9.02;;;4.30;;
9729;SDS011;4904;49.152;11.004;2024-02-21T06:15:26;9.05;;;4.47;;
9729;SDS011;4904;49.152;11.004;2024-02-21T06:17:53;10.40;;;4.32;;
9729;SDS011;4904;49.152;11.004;2024-02-21T06:20:20;9.68;;;4.97;;
9729;SDS011;4904;49.152;11.004;2024-02-21T06:22:47;8.68;;;4.60;;
9729;SDS011;4904;49.152;11.004;2024-02-21T06:25:15;10.30;;;4.40;;
9729;SDS011;4904;49.152;11.004;2024-02-21T06:27:43;11.32;;;4.88;;
9729;SDS011;4904;49.152;11.004;2024-02-21T06:30:10;10.15;;;4.40;;
9729;SDS011;4904;49.152;11.004;2024-02-21T06:32:38;13.50;;;4.70;;
9729;SDS011;4904;49.152;11.004;2024-02-21T06:35:05;9.27;;;4.22;;
9729;SDS011;4904;49.152;11.004;2024-02-21T06:37:32;12.40;;;4.90;;
9729;SDS011;4904;49.152;11.004;2024-02-21T06:39:59;10.85;;;3.78;;
9729;SDS011;4904;49.152;11.004;2024-02-21T06:42:27;7.85;;;3.83;;
9729;SDS011;4904;49.152;11.004;2024-02-21T06:44:54;8.98;;;4.25;;
9729;SDS011;4904;49.152;11.004;2024-02-21T06:47:22;10.02;;;3.95;;
9729;SDS011;4904;49.152;11.004;2024-02-21T06:49:49;12.35;;;3.97;;
9729;SDS011;4904;49.152;11.004;2024-02-21T06:52:17;6.47;;;3.63;;
9729;SDS011;4904;49.152;11.004;2024-02-21T06:54:45;11.65;;;4.32;;
9729;SDS011;4904;49.152;11.004;2024-02-21T06:57:12;8.00;;;4.00;;
9729;SDS011;4904;49.152;11.004;2024-02-21T06:59:42;6.95;;;3.88;;
9729;SDS011;4904;49.152;11.004;2024-02-21T07:02:09;9.95;;;4.97;;
9729;SDS011;4904;49.152;11.004;2024-02-21T07:04:35;7.60;;;3.63;;
9729;SDS011;4904;49.152;11.004;2024-02-21T07:07:02;9.98;;;4.15;;
9729;SDS011;4904;49.152;11.004;2024-02-21T07:09:29;7.03;;;4.35;;
9729;SDS011;4904;49.152;11.004;2024-02-21T07:11:57;10.50;;;3.97;;
9729;SDS011;4904;49.152;11.004;2024-02-21T07:14:24;8.20;;;3.83;;
9729;SDS011;4904;49.152;11.004;2024-02-21T07:16:52;8.27;;;3.85;;
9729;SDS011;4904;49.152;11.004;2024-02-21T07:19:19;10.05;;;3.92;;
9729;SDS011;4904;49.152;11.004;2024-02-21T07:21:46;11.70;;;4.32;;
9729;SDS011;4904;49.152;11.004;2024-02-21T07:24:13;9.68;;;4.50;;
9729;SDS011;4904;49.152;11.004;2024-02-21T07:26:41;11.43;;;6.53;;
9729;SDS011;4904;49.152;11.004;2024-02-21T07:29:09;9.00;;;4.93;;
9729;SDS011;4904;49.152;11.004;2024-02-21T07:31:38;8.88;;;4.03;;
9729;SDS011;4904;49.152;11.004;2024-02-21T07:34:08;8.57;;;4.43;;
9729;SDS011;4904;49.152;11.004;2024-02-21T07:36:35;5.93;;;3.75;;
9729;SDS011;4904;49.152;11.004;2024-02-21T07:39:02;7.80;;;4.05;;
9729;SDS011;4904;49.152;11.004;2024-02-21T07:41:29;7.53;;;3.67;;
9729;SDS011;4904;49.152;11.004;2024-02-21T07:43:56;8.82;;;3.90;;
9729;SDS011;4904;49.152;11.004;2024-02-21T07:46:23;8.32;;;4.18;;
9729;SDS011;4904;49.152;11.004;2024-02-21T07:48:50;9.43;;;3.50;;
9729;SDS011;4904;49.152;11.004;2024-02-21T07:51:18;6.80;;;3.65;;
9729;SDS011;4904;49.152;11.004;2024-02-21T07:53:45;6.72;;;3.30;;
9729;SDS011;4904;49.152;11.004;2024-02-21T07:56:13;7.90;;;3.40;;
9729;SDS011;4904;49.152;11.004;2024-02-21T07:58:41;8.48;;;3.47;;
9729;SDS011;4904;49.152;11.004;2024-02-21T08:01:08;10.07;;;4.15;;
9729;SDS011;4904;49.152;11.004;2024-02-21T08:03:35;9.07;;;4.00;;
9729;SDS011;4904;49.152;11.004;2024-02-21T08:06:03;8.23;;;3.35;;
9729;SDS011;4904;49.152;11.004;2024-02-21T08:08:31;7.28;;;3.33;;
9729;SDS011;4904;49.152;11.004;2024-02-21T08:10:59;7.32;;;2.78;;
9729;SDS011;4904;49.152;11.004;2024-02-21T08:13:26;5.82;;;2.90;;
9729;SDS011;4904;49.152;11.004;2024-02-21T08:15:53;6.70;;;3.40;;
9729;SDS011;4904;49.152;11.004;2024-02-21T08:18:20;5.55;;;3.10;;
9729;SDS011;4904;49.152;11.004;2024-02-21T08:20:47;8.48;;;3.13;;
9729;SDS011;4904;49.152;11.004;2024-02-21T08:23:15;7.43;;;3.10;;
9729;SDS011;4904;49.152;11.004;2024-02-21T08:25:44;6.25;;;2.90;;
9729;SDS011;4904;49.152;11.004;2024-02-21T08:28:11;6.90;;;3.20;;
9729;SDS011;4904;49.152;11.004;2024-02-21T08:30:40;8.05;;;3.42;;
9729;SDS011;4904;49.152;11.004;2024-02-21T08:33:12;8.98;;;4.30;;
9729;SDS011;4904;49.152;11.004;2024-02-21T08:35:42;7.78;;;3.80;;
9729;SDS011;4904;49.152;11.004;2024-02-21T08:38:09;5.20;;;2.75;;
9729;SDS011;4904;49.152;11.004;2024-02-21T08:40:36;5.38;;;2.72;;
9729;SDS011;4904;49.152;11.004;2024-02-21T08:43:04;8.02;;;3.17;;
9729;SDS011;4904;49.152;11.004;2024-02-21T08:45:31;11.95;;;2.92;;
9729;SDS011;4904;49.152;11.004;2024-02-21T08:47:58;5.65;;;2.45;;
9729;SDS011;4904;49.152;11.004;2024-02-21T08:50:25;4.78;;;2.45;;
9729;SDS011;4904;49.152;11.004;2024-02-21T08:52:51;6.72;;;2.30;;
9729;SDS011;4904;49.152;11.004;2024-02-21T08:55:19;6.65;;;2.70;;
9729;SDS011;4904;49.152;11.004;2024-02-21T08:57:45;8.23;;;2.90;;
9729;SDS011;4904;49.152;11.004;2024-02-21T09:00:15;6.35;;;2.58;;
9729;SDS011;4904;49.152;11.004;2024-02-21T09:02:42;6.97;;;2.78;;
9729;SDS011;4904;49.152;11.004;2024-02-21T09:05:09;6.40;;;2.72;;
9729;SDS011;4904;49.152;11.004;2024-02-21T09:07:37;6.65;;;2.63;;
9729;SDS011;4904;49.152;11.004;2024-02-21T09:10:05;6.55;;;2.60;;
9729;SDS011;4904;49.152;11.004;2024-02-21T09:12:32;5.85;;;2.40;;
9729;SDS011;4904;49.152;11.004;2024-02-21T09:14:59;5.20;;;2.90;;
9729;SDS011;4904;49.152;11.004;2024-02-21T09:17:28;7.45;;;3.42;;
9729;SDS011;4904;49.152;11.004;2024-02-21T09:19:55;6.00;;;3.00;;
9729;SDS011;4904;49.152;11.004;2024-02-21T09:22:24;8.07;;;2.95;;
9729;SDS011;4904;49.152;11.004;2024-02-21T09:24:51;5.38;;;2.20;;
9729;SDS011;4904;49.152;11.004;2024-02-21T09:27:18;6.85;;;2.40;;
9729;SDS011;4904;49.152;11.004;2024-02-21T09:29:45;7.20;;;2.42;;
9729;SDS011;4904;49.152;11.004;2024-02-21T09:32:13;4.32;;;1.85;;
9729;SDS011;4904;49.152;11.004;2024-02-21T09:34:41;4.75;;;2.08;;
9729;SDS011;4904;49.152;11.004;2024-02-21T09:37:08;6.22;;;2.50;;
9729;SDS011;4904;49.152;11.004;2024-02-21T09:39:35;6.28;;;2.60;;
9729;SDS011;4904;49.152;11.004;2024-02-21T09:42:04;5.80;;;2.22;;
9729;SDS011;4904;49.152;11.004;2024-02-21T09:44:33;5.82;;;2.33;;
9729;SDS011;4904;49.152;11.004;2024-02-21T09:47:03;4.72;;;2.30;;
9729;SDS011;4904;49.152;11.004;2024-02-21T09:49:33;4.43;;;2.25;;
9729;SDS011;4904;49.152;11.004;2024-02-21T09:52:05;9.13;;;2.53;;
9729;SDS011;4904;49.152;11.004;2024-02-21T09:54:32;4.68;;;2.35;;
9729;SDS011;4904;49.152;11.004;2024-02-21T09:57:00;6.57;;;2.10;;
9729;SDS011;4904;49.152;11.004;2024-02-21T09:59:27;7.22;;;2.60;;
9729;SDS011;4904;49.152;11.004;2024-02-21T10:01:56;4.18;;;2.30;;
9729;SDS011;4904;49.152;11.004;2024-02-21T10:04:25;6.72;;;2.38;;
9729;SDS011;4904;49.152;11.004;2024-02-21T10:06:53;6.22;;;3.30;;
9729;SDS011;4904;49.152;11.004;2024-02-21T10:09:22;7.10;;;2.30;;
9729;SDS011;4904;49.152;11.004;2024-02-21T10:11:49;6.00;;;2.65;;
9729;SDS011;4904;49.152;11.004;2024-02-21T10:14:16;4.90;;;2.20;;
9729;SDS011;4904;49.152;11.004;2024-02-21T10:16:47;6.07;;;2.28;;
9729;SDS011;4904;49.152;11.004;2024-02-21T10:19:18;3.00;;;2.20;;
9729;SDS011;4904;49.152;11.004;2024-02-21T10:21:58;6.25;;;2.17;;
9729;SDS011;4904;49.152;11.004;2024-02-21T10:24:31;5.28;;;1.92;;
9729;SDS011;4904;49.152;11.004;2024-02-21T10:26:58;6.10;;;2.45;;
9729;SDS011;4904;49.152;11.004;2024-02-21T10:29:28;7.75;;;2.20;;
9729;SDS011;4904;49.152;11.004;2024-02-21T10:32:03;4.03;;;2.33;;
9729;SDS011;4904;49.152;11.004;2024-02-21T10:34:31;3.50;;;1.85;;
9729;SDS011;4904;49.152;11.004;2024-02-21T10:37:02;5.55;;;2.00;;
9729;SDS011;4904;49.152;11.004;2024-02-21T10:39:31;4.20;;;1.70;;
9729;SDS011;4904;49.152;11.004;2024-02-21T10:41:59;3.80;;;1.75;;
9729;SDS011;4904;49.152;11.004;2024-02-21T10:44:28;3.88;;;1.80;;
9729;SDS011;4904;49.152;11.004;2024-02-21T10:46:56;4.40;;;2.10;;
9729;SDS011;4904;49.152;11.004;2024-02-21T10:49:24;4.65;;;2.30;;
9729;SDS011;4904;49.152;11.004;2024-02-21T10:51:54;5.10;;;1.90;;
9729;SDS011;4904;49.152;11.004;2024-02-21T10:54:25;2.83;;;1.70;;
9729;SDS011;4904;49.152;11.004;2024-02-21T10:57:05;3.90;;;1.98;;
9729;SDS011;4904;49.152;11.004;2024-02-21T10:59:35;4.18;;;2.13;;
9729;SDS011;4904;49.152;11.004;2024-02-21T11:02:04;4.88;;;1.95;;
9729;SDS011;4904;49.152;11.004;2024-02-21T11:04:31;5.68;;;2.25;;
9729;SDS011;4904;49.152;11.004;2024-02-21T11:07:01;4.45;;;2.08;;
9729;SDS011;4904;49.152;11.004;2024-02-21T11:09:30;4.07;;;2.15;;
9729;SDS011;4904;49.152;11.004;2024-02-21T11:11:59;6.20;;;2.30;;
9729;SDS011;4904;49.152;11.004;2024-02-21T11:14:28;7.38;;;2.72;;
9729;SDS011;4904;49.152;11.004;2024-02-21T11:16:58;5.22;;;1.98;;
9729;SDS011;4904;49.152;11.004;2024-02-21T11:19:25;5.93;;;2.28;;
9729;SDS011;4904;49.152;11.004;2024-02-21T11:21:53;4.55;;;2.05;;
9729;SDS011;4904;49.152;11.004;2024-02-21T11:24:28;4.00;;;2.40;;
9729;SDS011;4904;49.152;11.004;2024-02-21T11:26:56;3.72;;;1.80;;
9729;SDS011;4904;49.152;11.004;2024-02-21T11:29:39;6.10;;;2.40;;
9729;SDS011;4904;49.152;11.004;2024-02-21T11:32:09;6.13;;;2.70;;
9729;SDS011;4904;49.152;11.004;2024-02-21T11:34:36;5.25;;;2.35;;
9729;SDS011;4904;49.152;11.004;2024-02-21T11:37:04;6.35;;;2.58;;
9729;SDS011;4904;49.152;11.004;2024-02-21T11:39:40;6.40;;;2.97;;
9729;SDS011;4904;49.152;11.004;2024-02-21T11:42:08;5.70;;;2.60;;
9729;SDS011;4904;49.152;11.004;2024-02-21T11:44:37;6.72;;;2.42;;
9729;SDS011;4904;49.152;11.004;2024-02-21T11:47:05;7.03;;;2.92;;
9729;SDS011;4904;49.152;11.004;2024-02-21T11:49:35;5.03;;;2.28;;
9729;SDS011;4904;49.152;11.004;2024-02-21T11:52:03;3.38;;;1.90;;
9729;SDS011;4904;49.152;11.004;2024-02-21T11:54:30;5.35;;;2.60;;
9729;SDS011;4904;49.152;11.004;2024-02-21T11:56:58;5.07;;;2.35;;
9729;SDS011;4904;49.152;11.004;2024-02-21T11:59:25;5.70;;;2.17;;
9729;SDS011;4904;49.152;11.004;2024-02-21T12:01:53;6.72;;;2.50;;
9729;SDS011;4904;49.152;11.004;2024-02-21T12:04:20;7.75;;;2.10;;
9729;SDS011;4904;49.152;11.004;2024-02-21T12:06:48;5.90;;;2.20;;
9729;SDS011;4904;49.152;11.004;2024-02-21T12:09:16;4.40;;;2.38;;
9729;SDS011;4904;49.152;11.004;2024-02-21T12:11:43;7.00;;;2.08;;
9729;SDS011;4904;49.152;11.004;2024-02-21T12:14:10;5.10;;;2.40;;
9729;SDS011;4904;49.152;11.004;2024-02-21T12:16:42;4.13;;;2.38;;
9729;SDS011;4904;49.152;11.004;2024-02-21T12:19:14;6.50;;;2.47;;
9729;SDS011;4904;49.152;11.004;2024-02-21T12:21:42;6.80;;;2.58;;
9729;SDS011;4904;49.152;11.004;2024-02-21T12:24:13;5.53;;;2.38;;
9729;SDS011;4904;49.152;11.004;2024-02-21T12:26:40;5.90;;;2.40;;
9729;SDS011;4904;49.152;11.004;2024-02-21T12:29:08;6.50;;;2.08;;
9729;SDS011;4904;49.152;11.004;2024-02-21T12:31:35;4.93;;;2.17;;
9729;SDS011;4904;49.152;11.004;2024-02-21T12:34:02;6.45;;;2.03;;
9729;SDS011;4904;49.152;11.004;2024-02-21T12:36:30;4.35;;;2.08;;
9729;SDS011;4904;49.152;11.004;2024-02-21T12:38:57;4.80;;;2.08;;
9729;SDS011;4904;49.152;11.004;2024-02-21T12:41:24;4.20;;;1.90;;
9729;SDS011;4904;49.152;11.004;2024-02-21T12:43:52;5.65;;;2.30;;
9729;SDS011;4904;49.152;11.004;2024-02-21T12:46:19;3.95;;;1.90;;
9729;SDS011;4904;49.152;11.004;2024-02-21T12:48:45;3.15;;;1.75;;
9729;SDS011;4904;49.152;11.004;2024-02-21T12:51:12;4.28;;;2.13;;
9729;SDS011;4904;49.152;11.004;2024-02-21T12:53:42;4.20;;;2.10;;
9729;SDS011;4904;49.152;11.004;2024-02-21T12:56:08;3.50;;;2.15;;
9729;SDS011;4904;49.152;11.004;2024-02-21T12:58:35;5.43;;;2.42;;
9729;SDS011;4904;49.152;11.004;2024-02-21T13:01:02;4.13;;;2.08;;
9729;SDS011;4904;49.152;11.004;2024-02-21T13:03:30;3.55;;;2.03;;
9729;SDS011;4904;49.152;11.004;2024-02-21T13:05:56;5.68;;;1.95;;
9729;SDS011;4904;49.152;11.004;2024-02-21T13:08:24;3.00;;;1.80;;
9729;SDS011;4904;49.152;11.004;2024-02-21T13:10:52;5.85;;;2.33;;
9729;SDS011;4904;49.152;11.004;2024-02-21T13:13:19;4.40;;;2.17;;
9729;SDS011;4904;49.152;11.004;2024-02-21T13:15:46;6.43;;;2.17;;
9729;SDS011;4904;49.152;11.004;2024-02-21T13:18:13;5.93;;;2.20;;
9729;SDS011;4904;49.152;11.004;2024-02-21T13:20:40;3.42;;;1.73;;
9729;SDS011;4904;49.152;11.004;2024-02-21T13:23:07;5.07;;;1.80;;
9729;SDS011;4904;49.152;11.004;2024-02-21T13:25:34;5.63;;;2.20;;
9729;SDS011;4904;49.152;11.004;2024-02-21T13:28:02;3.88;;;1.90;;
9729;SDS011;4904;49.152;11.004;2024-02-21T13:30:29;4.88;;;2.13;;
9729;SDS011;4904;49.152;11.004;2024-02-21T13:32:56;6.00;;;2.22;;
9729;SDS011;4904;49.152;11.004;2024-02-21T13:35:23;4.95;;;2.08;;
9729;SDS011;4904;49.152;11.004;2024-02-21T13:37:50;2.72;;;1.77;;
9729;SDS011;4904;49.152;11.004;2024-02-21T13:40:17;4.25;;;2.42;;
9729;SDS011;4904;49.152;11.004;2024-02-21T13:42:44;6.55;;;2.00;;
9729;SDS011;4904;49.152;11.004;2024-02-21T13:45:12;3.25;;;2.10;;
9729;SDS011;4904;49.152;11.004;2024-02-21T13:47:40;4.78;;;2.17;;
9729;SDS011;4904;49.152;11.004;2024-02-21T13:50:07;3.90;;;2.03;;
9729;SDS011;4904;49.152;11.004;2024-02-21T13:52:36;4.68;;;2.17;;
9729;SDS011;4904;49.152;11.004;2024-02-21T13:55:03;4.13;;;2.08;;
9729;SDS011;4904;49.152;11.004;2024-02-21T13:57:33;5.40;;;2.30;;
9729;SDS011;4904;49.152;11.004;2024-02-21T14:00:00;5.40;;;2.10;;
9729;SDS011;4904;49.152;11.004;2024-02-21T14:02:29;6.97;;;2.05;;
9729;SDS011;4904;49.152;11.004;2024-02-21T14:04:56;5.53;;;2.05;;
9729;SDS011;4904;49.152;11.004;2024-02-21T14:07:24;6.10;;;2.10;;
9729;SDS011;4904;49.152;11.004;2024-02-21T14:09:50;5.45;;;2.20;;
9729;SDS011;4904;49.152;11.004;2024-02-21T14:12:17;2.58;;;1.83;;
9729;SDS011;4904;49.152;11.004;2024-02-21T14:14:46;4.57;;;2.05;;
9729;SDS011;4904;49.152;11.004;2024-02-21T14:17:15;3.17;;;2.60;;
9729;SDS011;4904;49.152;11.004;2024-02-21T14:19:43;3.88;;;2.30;;
9729;SDS011;4904;49.152;11.004;2024-02-21T14:22:10;3.75;;;2.10;;
9729;SDS011;4904;49.152;11.004;2024-02-21T14:24:37;3.90;;;2.22;;
9729;SDS011;4904;49.152;11.004;2024-02-21T14:27:04;2.92;;;1.85;;
9729;SDS011;4904;49.152;11.004;2024-02-21T14:29:31;4.25;;;2.00;;
9729;SDS011;4904;49.152;11.004;2024-02-21T14:31:58;2.75;;;2.10;;
9729;SDS011;4904;49.152;11.004;2024-02-21T14:34:25;4.53;;;1.98;;
9729;SDS011;4904;49.152;11.004;2024-02-21T14:36:53;1.90;;;1.52;;
9729;SDS011;4904;49.152;11.004;2024-02-21T14:39:20;3.55;;;1.90;;
9729;SDS011;4904;49.152;11.004;2024-02-21T14:41:47;3.30;;;1.60;;
9729;SDS011;4904;49.152;11.004;2024-02-21T14:44:14;3.80;;;1.80;;
9729;SDS011;4904;49.152;11.004;2024-02-21T14:46:41;3.17;;;1.67;;
9729;SDS011;4904;49.152;11.004;2024-02-21T14:49:08;2.75;;;1.90;;
9729;SDS011;4904;49.152;11.004;2024-02-21T14:51:37;2.33;;;1.90;;
9729;SDS011;4904;49.152;11.004;2024-02-21T14:54:05;3.72;;;1.92;;
9729;SDS011;4904;49.152;11.004;2024-02-21T14:56:33;4.30;;;2.00;;
9729;SDS011;4904;49.152;11.004;2024-02-21T14:59:00;3.17;;;1.90;;
9729;SDS011;4904;49.152;11.004;2024-02-21T15:01:29;3.72;;;1.65;;
9729;SDS011;4904;49.152;11.004;2024-02-21T15:03:57;5.03;;;2.00;;